Time;durP1;ratioP1;P1;durP2;ratioP2;P2;SDS_P1;SDS_P2;PMS_P1;PMS_P2;Temp;Humidity;BMP_temperature;BMP_pressure;BME280_temperature;BME280_humidity;BME280_pressure;Samples;Min_cycle;Max_cycle;Signal;HPM_P1;HPM_P2
2023/12/13 00:01:57;;;;;;;;;6.00;6.00;;;;;8.59;100.00;99509.34;5051266;28;10361;-67
2023/12/13 00:04:24;;;;;;;;;7.25;6.00;;;;;8.59;100.00;99517.38;5061803;28;10216;-66
2023/12/13 00:06:51;;;;;;;;;8.00;8.00;;;;;8.56;99.90;99515.13;5067113;28;10218;-67
2023/12/13 00:09:17;;;;;;;;;6.50;6.00;;;;;8.49;100.00;99513.50;5050507;28;10205;-67
2023/12/13 00:11:43;;;;;;;;;5.00;5.00;;;;;8.53;100.00;99506.69;5050603;28;10931;-68
2023/12/13 00:14:10;;;;;;;;;6.25;4.50;;;;;8.56;100.00;99507.06;5063226;28;10360;-68
2023/12/13 00:16:38;;;;;;;;;5.00;5.00;;;;;8.53;100.00;99501.31;5068698;28;10283;-67
2023/12/13 00:19:05;;;;;;;;;3.00;3.00;;;;;8.58;100.00;99504.16;5067399;28;10355;-66
2023/12/13 00:21:32;;;;;;;;;6.25;6.25;;;;;8.65;100.00;99499.59;5066052;28;10198;-67
2023/12/13 00:23:58;;;;;;;;;4.00;4.00;;;;;8.63;100.00;99499.00;5067192;28;10279;-67
2023/12/13 00:26:25;;;;;;;;;4.00;4.00;;;;;8.58;100.00;99496.94;5068982;28;11140;-66
2023/12/13 00:28:52;;;;;;;;;6.00;5.50;;;;;8.56;100.00;99490.97;5066119;28;10205;-67
2023/12/13 00:31:18;;;;;;;;;5.00;5.00;;;;;8.56;100.00;99490.16;5050482;28;10254;-67
2023/12/13 00:33:45;;;;;;;;;3.00;3.00;;;;;8.52;100.00;99489.75;5058535;28;10299;-67
2023/12/13 00:36:11;;;;;;;;;1.00;1.00;;;;;8.55;100.00;99497.41;5066710;28;10206;-67
2023/12/13 00:38:38;;;;;;;;;3.50;3.50;;;;;8.61;100.00;99498.38;5065558;28;10135;-67
2023/12/13 00:41:04;;;;;;;;;4.50;4.50;;;;;8.59;100.00;99500.47;5050247;28;10151;-68
2023/12/13 00:43:32;;;;;;;;;5.50;5.00;;;;;8.59;100.00;99500.47;5053931;28;10225;-66
2023/12/13 00:45:58;;;;;;;;;2.25;2.00;;;;;8.62;100.00;99502.69;5068423;28;10418;-67
2023/12/13 00:48:25;;;;;;;;;6.75;6.75;;;;;8.60;100.00;99502.09;5067076;28;10287;-66
2023/12/13 00:50:53;;;;;;;;;6.00;6.00;;;;;8.60;100.00;99494.06;5066782;28;10343;-67
2023/12/13 00:53:19;;;;;;;;;6.75;5.75;;;;;8.63;100.00;99501.69;5059883;28;10219;-66
2023/12/13 00:55:46;;;;;;;;;9.25;7.50;;;;;8.63;100.00;99497.16;5068014;28;10272;-65
2023/12/13 00:58:12;;;;;;;;;12.75;9.00;;;;;8.60;100.00;99500.25;5068101;28;10627;-66
2023/12/13 01:00:39;;;;;;;;;11.00;11.00;;;;;8.63;100.00;99499.00;5067609;28;10589;-65
2023/12/13 01:03:05;;;;;;;;;12.75;11.75;;;;;8.63;100.00;99502.50;5067001;28;10627;-66
2023/12/13 01:05:32;;;;;;;;;14.25;13.25;;;;;8.57;100.00;99494.47;5070220;28;10523;-65
2023/12/13 01:07:58;;;;;;;;;14.75;11.25;;;;;8.64;100.00;99496.09;5068498;28;10526;-65
2023/12/13 01:10:25;;;;;;;;;15.00;12.25;;;;;8.69;100.00;99494.63;5070208;28;10603;-65
2023/12/13 01:12:52;;;;;;;;;10.50;10.25;;;;;8.72;100.00;99499.56;5063153;28;10534;-66
2023/12/13 01:15:18;;;;;;;;;18.75;17.75;;;;;8.71;100.00;99490.72;5058975;28;11191;-66
2023/12/13 01:17:44;;;;;;;;;14.50;11.00;;;;;8.71;100.00;99501.44;5066835;28;10623;-67
2023/12/13 01:20:11;;;;;;;;;12.50;11.00;;;;;8.71;100.00;99495.22;5066886;28;10424;-66
2023/12/13 01:22:38;;;;;;;;;13.25;13.25;;;;;8.71;100.00;99493.38;5067398;28;10513;-66
2023/12/13 01:25:05;;;;;;;;;19.00;17.75;;;;;8.70;100.00;99498.94;5065497;28;11160;-66
2023/12/13 01:27:31;;;;;;;;;15.00;14.00;;;;;8.73;100.00;99503.91;5069452;28;10782;-67
2023/12/13 01:29:58;;;;;;;;;19.00;14.50;;;;;8.76;100.00;99496.25;5054891;28;10522;-66
2023/12/13 01:32:25;;;;;;;;;19.75;17.00;;;;;8.75;100.00;99499.13;5060604;28;10473;-65
2023/12/13 01:34:51;;;;;;;;;20.25;17.50;;;;;8.69;100.00;99506.19;5065791;28;10678;-66
2023/12/13 01:37:18;;;;;;;;;18.25;17.00;;;;;8.70;100.00;99505.13;5055781;28;11498;-66
2023/12/13 01:39:44;;;;;;;;;18.25;18.25;;;;;8.70;100.00;99507.00;5067155;28;10701;-66
2023/12/13 01:42:11;;;;;;;;;15.25;14.00;;;;;8.69;100.00;99505.38;5067457;28;10571;-66
2023/12/13 01:44:38;;;;;;;;;31.50;20.50;;;;;8.68;100.00;99512.59;5065689;28;10528;-66
2023/12/13 01:47:05;;;;;;;;;24.50;21.00;;;;;8.62;100.00;99522.31;5055543;28;10840;-66
2023/12/13 01:49:32;;;;;;;;;29.50;23.25;;;;;8.64;100.00;99522.09;5065445;28;10871;-66
2023/12/13 01:51:59;;;;;;;;;26.50;23.00;;;;;8.65;100.00;99521.88;5069715;28;10715;-67
2023/12/13 01:54:25;;;;;;;;;25.75;24.00;;;;;8.66;100.00;99528.88;5064430;28;10898;-66
2023/12/13 01:56:52;;;;;;;;;25.50;24.00;;;;;8.61;100.00;99519.84;5072283;28;10711;-66
2023/12/13 01:59:18;;;;;;;;;19.50;19.50;;;;;8.68;100.00;99525.19;5071105;28;10789;-68
2023/12/13 02:01:45;;;;;;;;;25.50;22.75;;;;;8.65;100.00;99527.25;5065311;28;10483;-67
2023/12/13 02:04:16;;;;;;;;;20.25;18.50;;;;;8.70;100.00;99520.41;5062359;28;10883;-66
2023/12/13 02:06:43;;;;;;;;;25.75;21.25;;;;;8.70;100.00;99523.09;5070695;28;10692;-69
2023/12/13 02:09:09;;;;;;;;;23.50;21.25;;;;;8.66;100.00;99526.19;5062994;28;10728;-67
2023/12/13 02:11:36;;;;;;;;;31.25;25.25;;;;;8.63;100.00;99523.16;5072214;28;10837;-66
2023/12/13 02:14:04;;;;;;;;;24.25;20.50;;;;;8.65;100.00;99521.88;5066064;28;10819;-67
2023/12/13 02:16:32;;;;;;;;;19.75;19.75;;;;;8.67;100.00;99521.69;5070114;28;10805;-66
2023/12/13 02:18:59;;;;;;;;;19.75;17.00;;;;;8.73;100.00;99522.69;5057607;28;10764;-67
2023/12/13 02:21:25;;;;;;;;;30.25;27.25;;;;;8.71;100.00;99517.53;5082769;28;10554;-67
2023/12/13 02:23:55;;;;;;;;;25.25;22.25;;;;;8.72;99.81;99521.84;5068302;28;11016;-66
2023/12/13 02:26:22;;;;;;;;;23.25;19.75;;;;;8.73;99.81;99512.75;5064322;28;10640;-65
2023/12/13 02:28:49;;;;;;;;;18.75;18.75;;;;;8.77;100.00;99519.34;5071429;28;10732;-66
2023/12/13 02:31:16;;;;;;;;;21.75;19.50;;;;;8.78;99.68;99515.63;5058756;28;10713;-66
2023/12/13 02:33:43;;;;;;;;;19.00;18.75;;;;;8.76;99.62;99517.72;5055169;28;10828;-69
2023/12/13 02:36:10;;;;;;;;;20.75;17.75;;;;;8.76;99.77;99516.88;5067458;28;10549;-66
2023/12/13 02:38:36;;;;;;;;;19.50;17.50;;;;;8.77;99.81;99513.97;5067349;28;10659;-66
2023/12/13 02:41:03;;;;;;;;;20.00;15.75;;;;;8.79;99.72;99513.75;5072348;28;10771;-66
2023/12/13 02:43:30;;;;;;;;;18.00;17.00;;;;;8.79;99.47;99509.22;5069939;28;10553;-66
2023/12/13 02:45:57;;;;;;;;;22.75;21.50;;;;;8.79;99.26;99506.56;5069431;28;10644;-66
2023/12/13 02:48:24;;;;;;;;;15.50;15.50;;;;;8.77;99.43;99511.28;5070719;28;10755;-68
2023/12/13 02:50:52;;;;;;;;;19.25;16.25;;;;;8.79;99.38;99508.38;5057498;28;10682;-66
2023/12/13 02:53:21;;;;;;;;;21.50;17.25;;;;;8.78;99.27;99512.94;5068470;28;10794;-65
2023/12/13 02:55:48;;;;;;;;;17.25;14.75;;;;;8.78;99.63;99504.88;5064463;28;10619;-68
2023/12/13 02:58:15;;;;;;;;;18.00;17.50;;;;;8.80;99.41;99515.41;5070645;28;10406;-66
2023/12/13 03:00:41;;;;;;;;;13.25;11.50;;;;;8.82;99.14;99510.66;5065124;28;10677;-66
2023/12/13 03:03:08;;;;;;;;;20.50;17.00;;;;;8.78;99.36;99512.94;5064033;28;10342;-67
2023/12/13 03:05:35;;;;;;;;;13.75;13.75;;;;;8.75;99.31;99518.75;5059199;28;10649;-67
2023/12/13 03:08:01;;;;;;;;;16.00;12.50;;;;;8.74;99.15;99510.91;5069990;28;10527;-66
2023/12/13 03:10:28;;;;;;;;;14.25;10.75;;;;;8.76;99.04;99498.94;5053358;28;11276;-65
2023/12/13 03:12:55;;;;;;;;;11.50;11.25;;;;;8.77;99.29;99502.44;5066248;28;10506;-67
2023/12/13 03:15:21;;;;;;;;;14.50;10.00;;;;;8.75;99.15;99499.97;5070507;28;10590;-67
2023/12/13 03:17:48;;;;;;;;;15.25;11.00;;;;;8.77;98.92;99503.25;5066237;28;10545;-66
2023/12/13 03:20:15;;;;;;;;;12.00;11.00;;;;;8.71;99.23;99503.28;5055811;28;10441;-71
2023/12/13 03:22:41;;;;;;;;;16.25;15.00;;;;;8.71;99.05;99496.06;5067312;28;10441;-66
2023/12/13 03:25:08;;;;;;;;;11.50;11.00;;;;;8.71;99.43;99504.13;5065971;28;10721;-66
2023/12/13 03:27:35;;;;;;;;;15.50;10.75;;;;;8.70;98.81;99497.09;5070100;28;10563;-66
2023/12/13 03:30:04;;;;;;;;;16.25;13.25;;;;;8.65;99.11;99502.28;5055018;28;10451;-66
2023/12/13 03:32:30;;;;;;;;;20.50;14.25;;;;;8.68;99.01;99506.41;5056487;28;10583;-66
2023/12/13 03:34:57;;;;;;;;;13.50;13.00;;;;;8.66;99.32;99493.19;5064557;28;10552;-66
2023/12/13 03:37:23;;;;;;;;;12.25;12.25;;;;;8.65;99.22;99496.91;5066907;28;10514;-66
2023/12/13 03:39:50;;;;;;;;;15.00;12.50;;;;;8.63;99.52;99496.31;5049658;28;11190;-66
2023/12/13 03:42:16;;;;;;;;;17.00;14.75;;;;;8.64;99.37;99492.59;5054168;28;10634;-66
2023/12/13 03:44:43;;;;;;;;;15.00;12.00;;;;;8.67;98.89;99497.53;5052181;28;11241;-66
2023/12/13 03:47:09;;;;;;;;;25.00;19.75;;;;;8.63;99.82;99497.16;5065094;28;10590;-70
2023/12/13 03:49:36;;;;;;;;;16.25;14.25;;;;;8.66;99.48;99495.88;5069475;28;11462;-66
2023/12/13 03:52:03;;;;;;;;;16.75;15.00;;;;;8.65;99.61;99495.06;5070308;28;11313;-67
2023/12/13 03:54:30;;;;;;;;;17.25;15.00;;;;;8.61;99.41;99493.84;5062834;28;10782;-68
2023/12/13 03:56:56;;;;;;;;;16.00;15.00;;;;;8.64;99.60;99504.16;5059473;28;10687;-69
2023/12/13 03:59:23;;;;;;;;;16.00;15.50;;;;;8.65;99.60;99499.59;5063506;28;11423;-67
2023/12/13 04:01:49;;;;;;;;;24.00;18.50;;;;;8.70;99.32;99502.44;5069626;28;10799;-68
2023/12/13 04:04:16;;;;;;;;;18.50;14.25;;;;;8.75;99.26;99497.28;5059335;28;10549;-70
2023/12/13 04:06:43;;;;;;;;;21.00;18.25;;;;;8.73;99.41;99498.53;5069142;28;10622;-69
2023/12/13 04:09:09;;;;;;;;;16.50;16.25;;;;;8.72;98.97;99495.03;5067725;28;10628;-67
2023/12/13 04:11:36;;;;;;;;;17.25;14.00;;;;;8.74;99.62;99498.31;5068825;28;10552;-71
2023/12/13 04:14:02;;;;;;;;;19.75;18.75;;;;;8.76;99.12;99496.25;5066330;28;10533;-66
2023/12/13 04:16:29;;;;;;;;;14.25;14.25;;;;;8.79;98.91;99498.50;5064178;28;10647;-68
2023/12/13 04:18:55;;;;;;;;;19.75;16.25;;;;;8.81;99.14;99496.41;5075502;28;10774;-68
2023/12/13 04:21:22;;;;;;;;;17.25;14.75;;;;;8.83;98.48;99491.66;5059073;28;11829;-67
2023/12/13 04:23:48;;;;;;;;;15.25;15.25;;;;;8.82;98.50;99492.69;5068021;28;11347;-69
2023/12/13 04:26:15;;;;;;;;;19.50;16.75;;;;;8.83;98.75;99497.03;5070461;28;10536;-68
2023/12/13 04:28:41;;;;;;;;;21.25;18.50;;;;;8.80;98.75;99499.31;5060660;28;10480;-67
2023/12/13 04:31:08;;;;;;;;;24.75;23.00;;;;;8.77;98.73;99494.38;5049296;28;10712;-67
2023/12/13 04:33:35;;;;;;;;;27.75;24.50;;;;;8.78;99.21;99501.38;5056459;28;10974;-69
2023/12/13 04:36:02;;;;;;;;;22.25;20.75;;;;;8.78;98.63;99504.88;5070104;28;11041;-69
2023/12/13 04:38:28;;;;;;;;;23.75;18.75;;;;;8.80;99.19;99502.00;5068559;28;10785;-67
2023/12/13 04:40:55;;;;;;;;;21.50;18.00;;;;;8.78;98.62;99504.88;5070214;28;11061;-67
2023/12/13 04:43:21;;;;;;;;;22.25;21.75;;;;;8.71;99.11;99501.44;5068197;28;10780;-68
2023/12/13 04:45:48;;;;;;;;;17.25;15.75;;;;;8.76;98.77;99493.56;5066053;28;10978;-67
2023/12/13 04:48:14;;;;;;;;;17.75;17.75;;;;;8.77;99.11;99497.88;5069153;28;10842;-68
2023/12/13 04:50:41;;;;;;;;;16.25;14.75;;;;;8.80;98.81;99492.09;5061347;28;10761;-68
2023/12/13 04:53:07;;;;;;;;;18.00;16.00;;;;;8.82;98.78;99499.91;5065053;28;10899;-69
2023/12/13 04:55:34;;;;;;;;;13.75;12.25;;;;;8.85;98.76;99499.50;5062515;28;10506;-65
2023/12/13 04:58:00;;;;;;;;;18.00;15.75;;;;;8.84;98.52;99506.72;5055413;28;10669;-68
2023/12/13 05:00:27;;;;;;;;;15.00;14.75;;;;;8.82;99.06;99503.41;5066131;28;11295;-69
2023/12/13 05:02:53;;;;;;;;;18.00;14.50;;;;;8.80;98.69;99492.09;5062849;28;11159;-67
2023/12/13 05:05:19;;;;;;;;;14.25;11.75;;;;;8.83;98.71;99504.22;5066939;28;10670;-68
2023/12/13 05:07:46;;;;;;;;;9.25;9.25;;;;;8.83;98.94;99497.03;5062939;28;10658;-68
2023/12/13 05:10:13;;;;;;;;;17.25;16.00;;;;;8.84;98.28;99495.16;5068337;28;10563;-68
2023/12/13 05:12:39;;;;;;;;;17.00;16.25;;;;;8.81;98.49;99504.47;5068783;28;11309;-67
2023/12/13 05:15:06;;;;;;;;;12.00;11.25;;;;;8.82;99.11;99495.38;5067130;28;10474;-71
2023/12/13 05:17:32;;;;;;;;;14.25;11.50;;;;;8.80;98.44;99494.78;5061564;28;10591;-65
2023/12/13 05:20:00;;;;;;;;;19.25;16.50;;;;;8.78;98.71;99496.84;5063961;28;10656;-68
2023/12/13 05:22:26;;;;;;;;;17.75;15.00;;;;;8.79;98.81;99492.28;5069419;28;10548;-67
2023/12/13 05:24:53;;;;;;;;;19.25;15.25;;;;;8.77;99.00;99484.47;5071482;28;11256;-67
2023/12/13 05:27:19;;;;;;;;;14.00;14.00;;;;;8.75;98.31;99489.25;5067874;28;10453;-67
2023/12/13 05:29:46;;;;;;;;;11.75;11.75;;;;;8.78;98.96;99494.16;5072549;28;10582;-67
2023/12/13 05:32:12;;;;;;;;;11.00;10.25;;;;;8.82;98.52;99489.19;5072666;28;10284;-69
2023/12/13 05:34:39;;;;;;;;;16.25;13.50;;;;;8.83;98.64;99490.81;5073155;28;10321;-68
2023/12/13 05:37:05;;;;;;;;;13.00;10.25;;;;;8.81;98.16;99491.03;5066771;28;11283;-67
2023/12/13 05:39:32;;;;;;;;;14.00;13.50;;;;;8.82;98.60;99490.00;5072458;28;10439;-68
2023/12/13 05:41:59;;;;;;;;;16.00;14.75;;;;;8.82;98.92;99492.69;5072191;28;10439;-69
2023/12/13 05:44:25;;;;;;;;;16.50;13.25;;;;;8.82;98.45;99495.38;5065348;28;10650;-67
2023/12/13 05:46:52;;;;;;;;;13.75;13.50;;;;;8.84;98.63;99501.34;5071775;28;10422;-67
2023/12/13 05:49:18;;;;;;;;;15.25;14.00;;;;;8.81;98.46;99495.59;5069827;28;10546;-67
2023/12/13 05:51:45;;;;;;;;;23.25;17.75;;;;;8.80;98.58;99491.28;5073582;28;10393;-67
2023/12/13 05:54:12;;;;;;;;;11.25;11.25;;;;;8.81;98.59;99491.03;5068866;28;11095;-68
2023/12/13 05:56:38;;;;;;;;;13.75;12.00;;;;;8.80;98.88;99494.78;5072905;28;10489;-66
2023/12/13 05:59:05;;;;;;;;;13.25;13.25;;;;;8.79;98.40;99493.13;5070300;28;10439;-68
2023/12/13 06:01:31;;;;;;;;;14.00;13.50;;;;;8.81;98.78;99495.59;5061526;28;10413;-67
2023/12/13 06:03:58;;;;;;;;;14.50;13.50;;;;;8.79;98.71;99495.81;5070612;28;10638;-68
2023/12/13 06:06:25;;;;;;;;;19.75;16.25;;;;;8.79;98.88;99495.81;5069855;28;10631;-67
2023/12/13 06:08:51;;;;;;;;;15.50;15.50;;;;;8.82;98.77;99492.69;5073010;28;10700;-68
2023/12/13 06:11:18;;;;;;;;;14.00;13.50;;;;;8.82;98.50;99495.38;5063807;28;10532;-67
2023/12/13 06:13:45;;;;;;;;;14.50;11.25;;;;;8.84;98.88;99492.50;5070716;28;10480;-68
2023/12/13 06:16:13;;;;;;;;;11.50;11.25;;;;;8.85;98.77;99497.63;5069765;28;10648;-67
2023/12/13 06:18:39;;;;;;;;;13.50;11.00;;;;;8.87;98.32;99508.97;5065891;28;10375;-66
2023/12/13 06:21:07;;;;;;;;;17.00;11.25;;;;;8.85;98.54;99497.63;5059394;28;10411;-68
2023/12/13 06:23:34;;;;;;;;;12.25;12.25;;;;;8.87;98.22;99505.44;5067078;28;10384;-69
2023/12/13 06:26:01;;;;;;;;;17.00;14.25;;;;;8.87;98.70;99508.13;5071362;28;11167;-68
2023/12/13 06:28:28;;;;;;;;;21.00;12.75;;;;;8.83;98.29;99506.91;5051902;28;10567;-68
2023/12/13 06:30:55;;;;;;;;;19.00;15.75;;;;;8.81;98.13;99506.31;5070348;28;10629;-67
2023/12/13 06:33:21;;;;;;;;;17.50;14.75;;;;;8.80;98.38;99510.88;5067525;28;10395;-68
2023/12/13 06:35:48;;;;;;;;;18.00;13.00;;;;;8.82;98.40;99513.31;5062022;28;10638;-70
2023/12/13 06:38:15;;;;;;;;;16.00;15.75;;;;;8.82;98.71;99511.47;5060295;28;10419;-71
2023/12/13 06:40:42;;;;;;;;;12.75;10.00;;;;;8.91;98.97;99512.88;5063301;28;10482;-70
2023/12/13 06:43:09;;;;;;;;;12.50;10.75;;;;;9.06;99.76;99506.38;5066572;28;10380;-71
2023/12/13 06:45:35;;;;;;;;;20.75;17.25;;;;;9.04;98.97;99519.19;5069530;28;10212;-70
2023/12/13 06:48:02;;;;;;;;;15.25;14.75;;;;;9.03;98.83;99517.53;5062860;28;10462;-71
2023/12/13 06:50:29;;;;;;;;;14.75;14.00;;;;;9.02;98.56;99516.72;5061462;28;10220;-70
2023/12/13 06:52:55;;;;;;;;;12.00;11.50;;;;;9.00;98.17;99517.97;5066116;28;10383;-71
2023/12/13 06:55:22;;;;;;;;;14.00;12.50;;;;;9.00;98.30;99517.97;5069244;28;11104;-71
2023/12/13 06:57:48;;;;;;;;;20.25;18.00;;;;;8.98;98.26;99522.72;5067504;28;10333;-70
2023/12/13 07:00:16;;;;;;;;;17.25;15.75;;;;;8.95;98.00;99518.59;5069247;28;10569;-70
2023/12/13 07:02:43;;;;;;;;;19.75;19.00;;;;;8.93;98.16;99526.06;5065808;28;10532;-70
2023/12/13 07:05:10;;;;;;;;;25.50;20.00;;;;;8.91;98.06;99523.59;5064048;28;10547;-71
2023/12/13 07:07:36;;;;;;;;;14.50;13.25;;;;;8.91;98.61;99523.59;5070179;28;10469;-69
2023/12/13 07:10:04;;;;;;;;;17.50;17.25;;;;;8.90;98.58;99523.81;5069688;28;10546;-71
2023/12/13 07:12:30;;;;;;;;;15.75;15.25;;;;;8.89;98.51;99517.63;5070631;28;11164;-70
2023/12/13 07:14:56;;;;;;;;;17.75;15.00;;;;;8.90;98.01;99524.63;5071711;28;10551;-71
2023/12/13 07:17:24;;;;;;;;;23.75;17.50;;;;;8.91;98.35;99526.28;5058016;28;10459;-71
2023/12/13 07:19:50;;;;;;;;;22.25;18.25;;;;;8.92;98.35;99524.44;5070353;28;10531;-71
2023/12/13 07:22:18;;;;;;;;;29.50;21.00;;;;;8.89;98.36;99527.53;5051801;28;10796;-70
2023/12/13 07:24:46;;;;;;;;;20.50;16.50;;;;;8.89;98.18;99524.84;5059270;28;10643;-71
2023/12/13 07:27:13;;;;;;;;;22.00;19.00;;;;;8.89;98.88;99531.03;5066233;28;10646;-71
2023/12/13 07:29:43;;;;;;;;;16.50;15.75;;;;;8.91;98.79;99531.66;5086006;28;10565;-69
2023/12/13 07:32:09;;;;;;;;;17.75;17.00;;;;;8.94;98.22;99535.75;5070177;28;10531;-71
2023/12/13 07:34:36;;;;;;;;;15.25;13.75;;;;;8.96;98.53;99532.88;5066051;28;10666;-70
2023/12/13 07:37:03;;;;;;;;;17.00;14.25;;;;;8.95;98.09;99539.25;5051331;28;10629;-71
2023/12/13 07:39:35;;;;;;;;;17.25;13.25;;;;;8.97;98.40;99534.50;5054096;28;11241;-70
2023/12/13 07:42:03;;;;;;;;;15.00;13.75;;;;;8.97;97.63;99539.88;5070217;28;10508;-71
2023/12/13 07:44:32;;;;;;;;;13.00;13.00;;;;;8.97;98.38;99547.94;5070937;28;11141;-70
2023/12/13 07:47:00;;;;;;;;;19.25;15.75;;;;;8.97;97.99;99545.25;5070872;28;10605;-70
2023/12/13 07:49:27;;;;;;;;;13.25;13.25;;;;;8.96;98.40;99543.59;5069240;28;10624;-70
2023/12/13 07:51:55;;;;;;;;;14.75;13.25;;;;;8.99;98.10;99553.91;5069809;28;10618;-70
2023/12/13 07:54:22;;;;;;;;;15.00;13.75;;;;;8.98;98.01;99557.63;5061065;28;10648;-70
2023/12/13 07:56:50;;;;;;;;;16.00;13.75;;;;;8.98;98.10;99555.75;5069629;28;10552;-70
2023/12/13 07:59:17;;;;;;;;;20.25;13.75;;;;;8.99;98.02;99553.91;5070539;28;10626;-70
2023/12/13 08:01:43;;;;;;;;;17.25;16.25;;;;;8.99;98.47;99554.72;5052917;28;10461;-70
2023/12/13 08:04:10;;;;;;;;;15.00;13.25;;;;;9.01;98.22;99559.88;5061783;28;10449;-70
2023/12/13 08:06:36;;;;;;;;;16.50;14.75;;;;;9.02;98.13;99556.97;5050722;28;11323;-69
2023/12/13 08:09:03;;;;;;;;;16.50;14.75;;;;;9.03;98.27;99555.94;5065871;28;10392;-69
2023/12/13 08:11:30;;;;;;;;;17.25;15.75;;;;;9.04;97.75;99564.81;5061379;28;10490;-70
2023/12/13 08:13:56;;;;;;;;;18.25;15.25;;;;;9.04;97.86;99559.47;5070464;28;10429;-70
2023/12/13 08:16:23;;;;;;;;;14.00;11.00;;;;;9.03;97.93;99563.16;5062923;28;10562;-69
2023/12/13 08:18:50;;;;;;;;;15.25;14.00;;;;;9.04;98.18;99568.34;5070452;28;10491;-69
2023/12/13 08:21:16;;;;;;;;;12.25;12.00;;;;;9.01;98.16;99560.69;5070574;28;10382;-70
2023/12/13 08:23:43;;;;;;;;;9.50;8.50;;;;;9.02;97.83;99562.34;5069925;28;10687;-71
2023/12/13 08:26:12;;;;;;;;;13.25;12.00;;;;;9.03;97.68;99565.84;5069973;28;10520;-70
2023/12/13 08:28:38;;;;;;;;;18.25;14.25;;;;;9.01;98.33;99568.75;5069632;28;11123;-70
2023/12/13 08:31:07;;;;;;;;;20.50;16.25;;;;;8.99;97.84;99575.38;5067390;28;10622;-69
2023/12/13 08:33:46;;;;;;;;;10.50;9.00;;;;;8.98;97.92;99576.41;5049747;28;10689;-70
2023/12/13 08:36:13;;;;;;;;;19.75;16.75;;;;;8.95;97.99;99574.97;5061270;28;10521;-70
2023/12/13 08:38:41;;;;;;;;;15.50;14.50;;;;;8.94;98.02;99578.69;5069480;28;10649;-69
2023/12/13 08:41:08;;;;;;;;;16.25;14.25;;;;;8.97;98.30;99580.13;5068465;28;10647;-70
2023/12/13 08:43:35;;;;;;;;;16.25;15.00;;;;;9.00;98.86;99582.41;5063202;28;10745;-71
2023/12/13 08:46:01;;;;;;;;;20.00;15.50;;;;;9.02;98.94;99583.81;5054579;28;10627;-69
2023/12/13 08:48:28;;;;;;;;;10.75;10.50;;;;;9.07;98.64;99588.53;5049812;28;10632;-70
2023/12/13 08:50:55;;;;;;;;;17.00;13.25;;;;;9.11;98.16;99587.06;5061513;28;10475;-70
2023/12/13 08:53:21;;;;;;;;;11.50;9.00;;;;;9.11;98.24;99595.94;5053047;28;10565;-70
2023/12/13 08:55:48;;;;;;;;;18.50;16.50;;;;;9.12;98.10;99592.25;5049665;28;10487;-69
2023/12/13 08:58:15;;;;;;;;;13.75;13.75;;;;;9.14;98.10;99586.66;5052679;28;10561;-70
2023/12/13 09:00:42;;;;;;;;;14.00;13.50;;;;;9.16;98.12;99598.00;5048183;28;10517;-70
2023/12/13 09:03:08;;;;;;;;;14.50;13.00;;;;;9.17;97.95;99599.63;5049892;28;10547;-70
2023/12/13 09:05:35;;;;;;;;;13.50;11.25;;;;;9.16;98.16;99598.81;5048474;28;10388;-70
2023/12/13 09:08:03;;;;;;;;;11.25;10.50;;;;;9.17;98.12;99599.63;5048175;28;10534;-69
2023/12/13 09:10:30;;;;;;;;;12.25;10.00;;;;;9.18;97.79;99603.97;5051643;28;10419;-70
2023/12/13 09:12:56;;;;;;;;;14.50;13.00;;;;;9.21;97.75;99608.09;5049818;28;10366;-69
2023/12/13 09:15:23;;;;;;;;;20.25;17.25;;;;;9.20;97.73;99606.44;5050485;28;11184;-70
2023/12/13 09:17:49;;;;;;;;;14.00;12.25;;;;;9.21;97.59;99608.91;5049395;28;10624;-70
2023/12/13 09:20:16;;;;;;;;;14.00;14.00;;;;;9.24;97.57;99613.03;5048520;28;10280;-70
2023/12/13 09:22:43;;;;;;;;;14.75;13.25;;;;;9.25;97.95;99622.72;5049386;28;10475;-69
2023/12/13 09:25:14;;;;;;;;;15.50;15.50;;;;;9.26;97.81;99624.38;5064968;28;10512;-70
2023/12/13 09:27:46;;;;;;;;;14.50;14.50;;;;;9.25;97.51;99622.72;5051831;28;11461;-69
2023/12/13 09:30:13;;;;;;;;;21.00;16.50;;;;;9.21;97.07;99622.34;5065454;28;10412;-70
2023/12/13 09:32:39;;;;;;;;;17.25;15.00;;;;;9.20;97.74;99620.69;5049857;28;10502;-70
2023/12/13 09:35:06;;;;;;;;;24.75;19.75;;;;;9.16;97.06;99627.53;5049580;28;10669;-70
2023/12/13 09:37:33;;;;;;;;;20.00;19.25;;;;;9.11;97.88;99619.28;5049529;28;10564;-70
2023/12/13 09:40:00;;;;;;;;;19.50;17.25;;;;;9.13;98.34;99619.91;5049434;28;10530;-69
2023/12/13 09:42:30;;;;;;;;;18.00;17.00;;;;;9.15;98.07;99625.88;5049943;28;10556;-70
2023/12/13 09:45:00;;;;;;;;;17.25;16.50;;;;;9.18;98.02;99621.94;5058890;28;10532;-69
2023/12/13 09:47:30;;;;;;;;;21.00;18.00;;;;;9.27;98.96;99631.38;5069165;28;10508;-70
2023/12/13 09:49:57;;;;;;;;;22.00;19.00;;;;;9.31;98.31;99630.72;5069492;28;10470;-70
2023/12/13 09:52:27;;;;;;;;;21.00;20.25;;;;;9.32;98.21;99637.78;5068220;28;10550;-69
2023/12/13 09:54:55;;;;;;;;;24.75;18.75;;;;;9.32;97.93;99635.09;5069361;28;11437;-70
2023/12/13 09:57:21;;;;;;;;;20.25;17.75;;;;;9.29;97.66;99640.06;5069411;28;10746;-70
2023/12/13 09:59:48;;;;;;;;;26.00;19.00;;;;;9.28;97.93;99641.09;5065998;28;10637;-69
2023/12/13 10:02:16;;;;;;;;;18.75;17.25;;;;;9.26;97.96;99644.00;5068777;28;10655;-70
2023/12/13 10:04:44;;;;;;;;;18.75;16.25;;;;;9.22;97.87;99648.13;5064432;28;10649;-70
2023/12/13 10:07:11;;;;;;;;;13.00;12.50;;;;;9.24;97.79;99647.94;5049330;28;10639;-70
2023/12/13 10:09:38;;;;;;;;;20.00;16.00;;;;;9.25;97.76;99649.59;5047738;28;10496;-69
2023/12/13 10:12:06;;;;;;;;;20.25;15.25;;;;;9.28;98.23;99654.53;5051104;28;10530;-70
2023/12/13 10:14:36;;;;;;;;;19.25;16.00;;;;;9.30;98.02;99660.50;5051504;28;10426;-70
2023/12/13 10:17:03;;;;;;;;;20.75;15.25;;;;;9.30;97.79;99655.13;5062520;28;10709;-70
2023/12/13 10:19:45;;;;;;;;;27.00;23.00;;;;;9.22;97.43;99664.25;5050948;28;11218;-69
2023/12/13 10:22:11;;;;;;;;;21.00;20.25;;;;;9.22;98.37;99672.31;5063882;28;10667;-70
2023/12/13 10:24:39;;;;;;;;;19.75;15.25;;;;;9.24;98.13;99678.31;5052620;28;10529;-68
2023/12/13 10:27:06;;;;;;;;;24.25;22.25;;;;;9.19;97.88;99675.41;5071176;28;10330;-70
2023/12/13 10:29:33;;;;;;;;;20.75;18.75;;;;;9.19;97.98;99678.09;5053999;28;10678;-70
2023/12/13 10:32:00;;;;;;;;;20.50;15.00;;;;;9.20;98.41;99678.94;5070881;28;10469;-70
2023/12/13 10:34:28;;;;;;;;;15.00;14.75;;;;;9.21;98.38;99689.47;5070605;28;10319;-70
2023/12/13 10:36:55;;;;;;;;;17.75;12.50;;;;;9.25;98.92;99688.00;5072334;28;10383;-70
2023/12/13 10:39:24;;;;;;;;;11.75;11.25;;;;;9.28;98.37;99679.53;5072206;28;10496;-70
2023/12/13 10:41:56;;;;;;;;;12.50;11.00;;;;;9.33;98.29;99686.94;5070854;28;10615;-70
2023/12/13 10:44:23;;;;;;;;;15.00;10.50;;;;;9.35;98.15;99682.16;5069704;28;10231;-69
2023/12/13 10:46:58;;;;;;;;;16.75;13.75;;;;;9.37;98.02;99674.72;5068829;28;10319;-70
2023/12/13 10:49:27;;;;;;;;;16.50;14.75;;;;;9.37;97.99;99674.72;5071600;28;10492;-69
2023/12/13 10:51:56;;;;;;;;;20.50;19.25;;;;;9.36;98.14;99684.66;5059823;28;10338;-69
2023/12/13 10:54:23;;;;;;;;;15.00;12.50;;;;;9.39;97.84;99678.00;5059757;28;10324;-70
2023/12/13 10:56:50;;;;;;;;;15.25;13.25;;;;;9.39;97.67;99689.56;5051838;28;10406;-69
2023/12/13 10:59:18;;;;;;;;;15.50;12.00;;;;;9.38;97.94;99693.28;5059773;28;10578;-68
2023/12/13 11:01:46;;;;;;;;;14.75;10.75;;;;;9.39;98.16;99689.56;5069373;28;10331;-70
2023/12/13 11:04:16;;;;;;;;;13.00;13.00;;;;;9.41;98.03;99695.56;5067946;28;10492;-70
2023/12/13 11:06:46;;;;;;;;;15.50;14.75;;;;;9.41;97.80;99692.06;5064018;28;10504;-70
2023/12/13 11:09:17;;;;;;;;;12.50;11.50;;;;;9.40;98.03;99701.16;5063820;28;10597;-69
2023/12/13 11:11:44;;;;;;;;;16.25;15.00;;;;;9.42;98.37;99699.06;5066979;28;10424;-70
2023/12/13 11:14:11;;;;;;;;;14.00;11.00;;;;;9.43;97.70;99703.38;5061476;28;10404;-69
2023/12/13 11:16:40;;;;;;;;;13.50;12.50;;;;;9.44;97.99;99707.75;5071386;28;10399;-69
2023/12/13 11:19:11;;;;;;;;;14.25;14.25;;;;;9.44;98.11;99705.06;5071227;28;10382;-69
2023/12/13 11:21:40;;;;;;;;;14.50;14.25;;;;;9.40;97.75;99709.22;5071339;28;10497;-70
2023/12/13 11:24:16;;;;;;;;;16.25;14.00;;;;;9.41;98.33;99711.69;5065958;28;10392;-70